sensor_id;sensor_type;location;lat;lon;timestamp;P1;durP1;ratioP1;P2;durP2;ratioP2
26750;SDS011;14345;48.272;25.926;2023-02-28T00:00:01;20.00;;;12.73;;
26750;SDS011;14345;48.272;25.926;2023-02-28T00:02:34;19.13;;;12.25;;
26750;SDS011;14345;48.272;25.926;2023-02-28T00:05:00;17.10;;;11.35;;
26750;SDS011;14345;48.272;25.926;2023-02-28T00:07:28;18.35;;;12.63;;
26750;SDS011;14345;48.272;25.926;2023-02-28T00:09:54;15.30;;;11.00;;
26750;SDS011;14345;48.272;25.926;2023-02-28T00:12:20;18.52;;;12.35;;
26750;SDS011;14345;48.272;25.926;2023-02-28T00:14:46;16.83;;;11.40;;
26750;SDS011;14345;48.272;25.926;2023-02-28T00:17:12;21.38;;;12.60;;
26750;SDS011;14345;48.272;25.926;2023-02-28T00:19:38;18.10;;;11.40;;
26750;SDS011;14345;48.272;25.926;2023-02-28T00:22:04;17.15;;;10.43;;
26750;SDS011;14345;48.272;25.926;2023-02-28T00:24:30;16.90;;;11.20;;
26750;SDS011;14345;48.272;25.926;2023-02-28T00:26:56;19.20;;;12.25;;
26750;SDS011;14345;48.272;25.926;2023-02-28T00:29:22;17.05;;;11.82;;
26750;SDS011;14345;48.272;25.926;2023-02-28T00:31:48;17.00;;;11.10;;
26750;SDS011;14345;48.272;25.926;2023-02-28T00:34:14;18.08;;;12.10;;
26750;SDS011;14345;48.272;25.926;2023-02-28T00:36:40;22.05;;;12.95;;
26750;SDS011;14345;48.272;25.926;2023-02-28T00:39:10;15.32;;;10.52;;
26750;SDS011;14345;48.272;25.926;2023-02-28T00:41:36;17.25;;;11.27;;
26750;SDS011;14345;48.272;25.926;2023-02-28T00:44:02;15.00;;;10.98;;
26750;SDS011;14345;48.272;25.926;2023-02-28T00:46:28;13.50;;;9.68;;
26750;SDS011;14345;48.272;25.926;2023-02-28T00:48:54;15.63;;;10.45;;
26750;SDS011;14345;48.272;25.926;2023-02-28T00:51:20;13.18;;;9.00;;
26750;SDS011;14345;48.272;25.926;2023-02-28T00:53:46;14.00;;;9.20;;
26750;SDS011;14345;48.272;25.926;2023-02-28T00:56:12;14.65;;;9.38;;
26750;SDS011;14345;48.272;25.926;2023-02-28T00:58:38;13.80;;;9.75;;
26750;SDS011;14345;48.272;25.926;2023-02-28T01:01:05;15.23;;;10.93;;
26750;SDS011;14345;48.272;25.926;2023-02-28T01:03:31;16.27;;;11.55;;
26750;SDS011;14345;48.272;25.926;2023-02-28T01:05:57;14.80;;;11.07;;
26750;SDS011;14345;48.272;25.926;2023-02-28T01:08:23;13.85;;;9.95;;
26750;SDS011;14345;48.272;25.926;2023-02-28T01:10:51;15.15;;;10.10;;
26750;SDS011;14345;48.272;25.926;2023-02-28T01:13:17;15.68;;;10.13;;
26750;SDS011;14345;48.272;25.926;2023-02-28T01:15:49;11.45;;;8.82;;
26750;SDS011;14345;48.272;25.926;2023-02-28T01:18:16;14.15;;;9.18;;
26750;SDS011;14345;48.272;25.926;2023-02-28T01:20:42;13.38;;;9.45;;
26750;SDS011;14345;48.272;25.926;2023-02-28T01:23:08;13.38;;;9.40;;
26750;SDS011;14345;48.272;25.926;2023-02-28T01:25:37;13.18;;;9.98;;
26750;SDS011;14345;48.272;25.926;2023-02-28T01:28:03;14.65;;;9.82;;
26750;SDS011;14345;48.272;25.926;2023-02-28T01:30:29;16.88;;;11.45;;
26750;SDS011;14345;48.272;25.926;2023-02-28T01:32:56;17.80;;;12.30;;
26750;SDS011;14345;48.272;25.926;2023-02-28T01:35:22;15.73;;;10.63;;
26750;SDS011;14345;48.272;25.926;2023-02-28T01:37:48;15.80;;;10.48;;
26750;SDS011;14345;48.272;25.926;2023-02-28T01:40:14;13.05;;;9.40;;
26750;SDS011;14345;48.272;25.926;2023-02-28T01:42:40;11.82;;;9.10;;
26750;SDS011;14345;48.272;25.926;2023-02-28T01:45:25;15.02;;;9.95;;
26750;SDS011;14345;48.272;25.926;2023-02-28T01:47:52;12.30;;;9.02;;
26750;SDS011;14345;48.272;25.926;2023-02-28T01:50:20;13.07;;;9.18;;
26750;SDS011;14345;48.272;25.926;2023-02-28T01:52:47;13.35;;;10.10;;
26750;SDS011;14345;48.272;25.926;2023-02-28T01:55:13;11.25;;;8.77;;
26750;SDS011;14345;48.272;25.926;2023-02-28T01:57:43;11.07;;;8.55;;
26750;SDS011;14345;48.272;25.926;2023-02-28T02:00:11;15.43;;;9.95;;
26750;SDS011;14345;48.272;25.926;2023-02-28T02:02:40;16.85;;;11.63;;
26750;SDS011;14345;48.272;25.926;2023-02-28T02:05:09;14.25;;;11.05;;
26750;SDS011;14345;48.272;25.926;2023-02-28T02:07:37;14.57;;;10.50;;
26750;SDS011;14345;48.272;25.926;2023-02-28T02:10:11;13.80;;;10.02;;
26750;SDS011;14345;48.272;25.926;2023-02-28T02:13:01;14.00;;;9.85;;
26750;SDS011;14345;48.272;25.926;2023-02-28T02:18:18;16.17;;;10.23;;
26750;SDS011;14345;48.272;25.926;2023-02-28T02:25:53;14.38;;;10.18;;
26750;SDS011;14345;48.272;25.926;2023-02-28T02:38:32;16.02;;;11.73;;
26750;SDS011;14345;48.272;25.926;2023-02-28T02:41:08;16.42;;;11.88;;
26750;SDS011;14345;48.272;25.926;2023-02-28T02:46:28;18.75;;;12.15;;
26750;SDS011;14345;48.272;25.926;2023-02-28T02:48:55;17.13;;;12.40;;
26750;SDS011;14345;48.272;25.926;2023-02-28T02:51:23;18.77;;;12.18;;
26750;SDS011;14345;48.272;25.926;2023-02-28T02:53:51;15.82;;;11.57;;
26750;SDS011;14345;48.272;25.926;2023-02-28T02:56:18;16.70;;;12.20;;
26750;SDS011;14345;48.272;25.926;2023-02-28T02:58:45;16.58;;;12.07;;
26750;SDS011;14345;48.272;25.926;2023-02-28T03:01:15;14.73;;;11.60;;
26750;SDS011;14345;48.272;25.926;2023-02-28T03:03:42;15.65;;;11.30;;
26750;SDS011;14345;48.272;25.926;2023-02-28T03:06:08;15.40;;;10.73;;
26750;SDS011;14345;48.272;25.926;2023-02-28T03:08:36;17.60;;;11.40;;
26750;SDS011;14345;48.272;25.926;2023-02-28T03:11:03;17.85;;;11.98;;
26750;SDS011;14345;48.272;25.926;2023-02-28T03:13:44;17.38;;;11.77;;
26750;SDS011;14345;48.272;25.926;2023-02-28T03:24:18;18.33;;;12.20;;
26750;SDS011;14345;48.272;25.926;2023-02-28T03:26:46;13.70;;;10.65;;
26750;SDS011;14345;48.272;25.926;2023-02-28T03:29:23;16.30;;;10.80;;
26750;SDS011;14345;48.272;25.926;2023-02-28T03:31:54;17.15;;;11.85;;
26750;SDS011;14345;48.272;25.926;2023-02-28T03:34:26;17.48;;;12.00;;
26750;SDS011;14345;48.272;25.926;2023-02-28T03:36:59;18.10;;;12.10;;
26750;SDS011;14345;48.272;25.926;2023-02-28T03:42:12;22.95;;;14.52;;
26750;SDS011;14345;48.272;25.926;2023-02-28T03:44:44;23.23;;;15.65;;
26750;SDS011;14345;48.272;25.926;2023-02-28T03:49:59;24.35;;;16.25;;
26750;SDS011;14345;48.272;25.926;2023-02-28T03:52:27;27.38;;;16.70;;
26750;SDS011;14345;48.272;25.926;2023-02-28T03:54:54;22.77;;;15.93;;
26750;SDS011;14345;48.272;25.926;2023-02-28T03:57:27;21.05;;;14.45;;
26750;SDS011;14345;48.272;25.926;2023-02-28T03:59:56;22.20;;;15.20;;
26750;SDS011;14345;48.272;25.926;2023-02-28T04:02:24;24.88;;;15.88;;
26750;SDS011;14345;48.272;25.926;2023-02-28T04:04:50;25.13;;;16.55;;
26750;SDS011;14345;48.272;25.926;2023-02-28T04:07:16;21.15;;;15.50;;
26750;SDS011;14345;48.272;25.926;2023-02-28T04:09:43;19.67;;;14.15;;
26750;SDS011;14345;48.272;25.926;2023-02-28T04:12:09;18.88;;;12.27;;
26750;SDS011;14345;48.272;25.926;2023-02-28T04:14:35;21.33;;;14.00;;
26750;SDS011;14345;48.272;25.926;2023-02-28T04:17:01;27.85;;;16.50;;
26750;SDS011;14345;48.272;25.926;2023-02-28T04:19:27;22.45;;;15.13;;
26750;SDS011;14345;48.272;25.926;2023-02-28T04:21:53;22.35;;;14.82;;
26750;SDS011;14345;48.272;25.926;2023-02-28T04:24:21;20.67;;;14.57;;
26750;SDS011;14345;48.272;25.926;2023-02-28T04:26:48;18.67;;;13.95;;
26750;SDS011;14345;48.272;25.926;2023-02-28T04:29:18;23.17;;;13.88;;
26750;SDS011;14345;48.272;25.926;2023-02-28T04:31:44;22.60;;;14.63;;
26750;SDS011;14345;48.272;25.926;2023-02-28T04:34:11;21.42;;;13.63;;
26750;SDS011;14345;48.272;25.926;2023-02-28T04:36:37;24.77;;;16.88;;
26750;SDS011;14345;48.272;25.926;2023-02-28T04:39:03;30.27;;;18.45;;
26750;SDS011;14345;48.272;25.926;2023-02-28T04:41:29;24.80;;;15.02;;
26750;SDS011;14345;48.272;25.926;2023-02-28T04:43:55;20.00;;;12.80;;
26750;SDS011;14345;48.272;25.926;2023-02-28T04:46:21;18.83;;;13.82;;
26750;SDS011;14345;48.272;25.926;2023-02-28T04:48:47;18.23;;;12.55;;
26750;SDS011;14345;48.272;25.926;2023-02-28T04:51:14;19.70;;;13.27;;
26750;SDS011;14345;48.272;25.926;2023-02-28T04:53:41;21.70;;;13.50;;
26750;SDS011;14345;48.272;25.926;2023-02-28T04:56:08;22.45;;;13.60;;
26750;SDS011;14345;48.272;25.926;2023-02-28T04:58:34;22.65;;;13.75;;
26750;SDS011;14345;48.272;25.926;2023-02-28T05:01:13;26.98;;;18.08;;
26750;SDS011;14345;48.272;25.926;2023-02-28T05:03:42;35.90;;;22.00;;
26750;SDS011;14345;48.272;25.926;2023-02-28T05:06:09;40.22;;;23.70;;
26750;SDS011;14345;48.272;25.926;2023-02-28T05:08:35;41.90;;;24.25;;
26750;SDS011;14345;48.272;25.926;2023-02-28T05:11:01;35.63;;;23.85;;
26750;SDS011;14345;48.272;25.926;2023-02-28T05:13:27;34.03;;;22.60;;
26750;SDS011;14345;48.272;25.926;2023-02-28T05:15:54;29.13;;;18.80;;
26750;SDS011;14345;48.272;25.926;2023-02-28T05:18:20;24.45;;;17.23;;
26750;SDS011;14345;48.272;25.926;2023-02-28T05:20:46;22.02;;;15.82;;
26750;SDS011;14345;48.272;25.926;2023-02-28T05:23:12;21.13;;;15.27;;
26750;SDS011;14345;48.272;25.926;2023-02-28T05:25:39;22.88;;;14.50;;
26750;SDS011;14345;48.272;25.926;2023-02-28T05:28:06;22.52;;;15.73;;
26750;SDS011;14345;48.272;25.926;2023-02-28T05:30:33;28.10;;;17.60;;
26750;SDS011;14345;48.272;25.926;2023-02-28T05:32:59;25.10;;;17.67;;
26750;SDS011;14345;48.272;25.926;2023-02-28T05:35:25;29.92;;;18.55;;
26750;SDS011;14345;48.272;25.926;2023-02-28T05:37:51;33.55;;;21.60;;
26750;SDS011;14345;48.272;25.926;2023-02-28T05:40:18;32.95;;;20.98;;
26750;SDS011;14345;48.272;25.926;2023-02-28T05:42:45;33.65;;;21.50;;
26750;SDS011;14345;48.272;25.926;2023-02-28T05:45:11;35.95;;;22.10;;
26750;SDS011;14345;48.272;25.926;2023-02-28T05:47:37;41.97;;;25.70;;
26750;SDS011;14345;48.272;25.926;2023-02-28T05:50:04;45.35;;;28.15;;
26750;SDS011;14345;48.272;25.926;2023-02-28T05:52:30;42.78;;;26.88;;
26750;SDS011;14345;48.272;25.926;2023-02-28T05:54:56;39.38;;;24.55;;
26750;SDS011;14345;48.272;25.926;2023-02-28T05:57:22;38.38;;;22.80;;
26750;SDS011;14345;48.272;25.926;2023-02-28T05:59:48;34.58;;;21.27;;
26750;SDS011;14345;48.272;25.926;2023-02-28T06:02:15;34.47;;;21.77;;
26750;SDS011;14345;48.272;25.926;2023-02-28T06:04:41;34.65;;;21.48;;
26750;SDS011;14345;48.272;25.926;2023-02-28T06:07:08;37.72;;;24.95;;
26750;SDS011;14345;48.272;25.926;2023-02-28T06:09:34;43.55;;;28.40;;
26750;SDS011;14345;48.272;25.926;2023-02-28T06:12:00;46.03;;;29.52;;
26750;SDS011;14345;48.272;25.926;2023-02-28T06:14:28;44.13;;;28.00;;
26750;SDS011;14345;48.272;25.926;2023-02-28T06:16:56;38.40;;;24.30;;
26750;SDS011;14345;48.272;25.926;2023-02-28T06:19:22;30.83;;;20.55;;
26750;SDS011;14345;48.272;25.926;2023-02-28T06:21:50;36.10;;;22.20;;
26750;SDS011;14345;48.272;25.926;2023-02-28T06:24:18;38.97;;;22.17;;
26750;SDS011;14345;48.272;25.926;2023-02-28T06:26:44;31.88;;;20.00;;
26750;SDS011;14345;48.272;25.926;2023-02-28T06:29:10;31.67;;;18.50;;
26750;SDS011;14345;48.272;25.926;2023-02-28T06:31:36;30.05;;;17.38;;
26750;SDS011;14345;48.272;25.926;2023-02-28T06:34:03;31.02;;;18.40;;
26750;SDS011;14345;48.272;25.926;2023-02-28T06:36:29;34.15;;;20.00;;
26750;SDS011;14345;48.272;25.926;2023-02-28T06:38:56;29.50;;;18.10;;
26750;SDS011;14345;48.272;25.926;2023-02-28T06:41:25;31.25;;;18.52;;
26750;SDS011;14345;48.272;25.926;2023-02-28T06:43:52;27.35;;;16.92;;
26750;SDS011;14345;48.272;25.926;2023-02-28T06:46:18;29.02;;;17.10;;
26750;SDS011;14345;48.272;25.926;2023-02-28T06:48:44;36.58;;;19.80;;
26750;SDS011;14345;48.272;25.926;2023-02-28T06:51:13;40.28;;;22.95;;
26750;SDS011;14345;48.272;25.926;2023-02-28T06:53:40;40.15;;;24.52;;
26750;SDS011;14345;48.272;25.926;2023-02-28T06:56:06;40.63;;;24.00;;
26750;SDS011;14345;48.272;25.926;2023-02-28T06:58:33;42.95;;;25.17;;
26750;SDS011;14345;48.272;25.926;2023-02-28T07:00:59;39.60;;;23.52;;
26750;SDS011;14345;48.272;25.926;2023-02-28T07:03:25;45.28;;;24.63;;
26750;SDS011;14345;48.272;25.926;2023-02-28T07:05:51;42.35;;;24.50;;
26750;SDS011;14345;48.272;25.926;2023-02-28T07:08:18;37.17;;;23.75;;
26750;SDS011;14345;48.272;25.926;2023-02-28T07:10:44;42.92;;;25.05;;
26750;SDS011;14345;48.272;25.926;2023-02-28T07:13:10;44.85;;;25.35;;
26750;SDS011;14345;48.272;25.926;2023-02-28T07:15:37;46.88;;;27.17;;
26750;SDS011;14345;48.272;25.926;2023-02-28T07:18:03;50.33;;;27.40;;
26750;SDS011;14345;48.272;25.926;2023-02-28T07:20:29;48.13;;;29.10;;
26750;SDS011;14345;48.272;25.926;2023-02-28T07:22:55;43.72;;;26.15;;
26750;SDS011;14345;48.272;25.926;2023-02-28T07:25:22;43.22;;;26.13;;
26750;SDS011;14345;48.272;25.926;2023-02-28T07:27:49;50.40;;;28.60;;
26750;SDS011;14345;48.272;25.926;2023-02-28T07:30:15;51.13;;;30.58;;
26750;SDS011;14345;48.272;25.926;2023-02-28T07:32:41;49.70;;;28.27;;
26750;SDS011;14345;48.272;25.926;2023-02-28T07:35:07;52.28;;;29.73;;
26750;SDS011;14345;48.272;25.926;2023-02-28T07:37:33;48.33;;;29.60;;
26750;SDS011;14345;48.272;25.926;2023-02-28T07:40:06;50.22;;;29.67;;
26750;SDS011;14345;48.272;25.926;2023-02-28T07:42:33;56.58;;;32.33;;
26750;SDS011;14345;48.272;25.926;2023-02-28T07:44:59;64.05;;;37.15;;
26750;SDS011;14345;48.272;25.926;2023-02-28T07:47:26;61.45;;;35.60;;
26750;SDS011;14345;48.272;25.926;2023-02-28T07:49:52;53.60;;;32.33;;
26750;SDS011;14345;48.272;25.926;2023-02-28T07:52:18;59.03;;;32.67;;
26750;SDS011;14345;48.272;25.926;2023-02-28T07:54:44;58.78;;;31.25;;
26750;SDS011;14345;48.272;25.926;2023-02-28T07:57:10;51.92;;;29.90;;
26750;SDS011;14345;48.272;25.926;2023-02-28T07:59:36;57.40;;;31.65;;
26750;SDS011;14345;48.272;25.926;2023-02-28T08:02:02;58.03;;;32.17;;
26750;SDS011;14345;48.272;25.926;2023-02-28T08:04:31;51.17;;;28.98;;
26750;SDS011;14345;48.272;25.926;2023-02-28T08:06:57;53.47;;;30.35;;
26750;SDS011;14345;48.272;25.926;2023-02-28T08:09:23;55.78;;;30.45;;
26750;SDS011;14345;48.272;25.926;2023-02-28T08:11:49;55.42;;;31.52;;
26750;SDS011;14345;48.272;25.926;2023-02-28T08:14:15;50.88;;;29.80;;
26750;SDS011;14345;48.272;25.926;2023-02-28T08:16:41;52.85;;;31.52;;
26750;SDS011;14345;48.272;25.926;2023-02-28T08:19:08;53.85;;;31.08;;
26750;SDS011;14345;48.272;25.926;2023-02-28T08:21:34;49.85;;;29.60;;
26750;SDS011;14345;48.272;25.926;2023-02-28T08:24:00;51.88;;;29.08;;
26750;SDS011;14345;48.272;25.926;2023-02-28T08:26:26;47.63;;;28.92;;
26750;SDS011;14345;48.272;25.926;2023-02-28T08:28:52;44.08;;;26.77;;
26750;SDS011;14345;48.272;25.926;2023-02-28T08:31:18;51.88;;;29.60;;
26750;SDS011;14345;48.272;25.926;2023-02-28T08:33:45;49.85;;;31.48;;
26750;SDS011;14345;48.272;25.926;2023-02-28T08:36:13;49.60;;;28.83;;
26750;SDS011;14345;48.272;25.926;2023-02-28T08:38:40;57.80;;;31.05;;
26750;SDS011;14345;48.272;25.926;2023-02-28T08:41:07;58.13;;;33.63;;
26750;SDS011;14345;48.272;25.926;2023-02-28T08:43:34;53.03;;;32.58;;
26750;SDS011;14345;48.272;25.926;2023-02-28T08:46:00;61.42;;;37.83;;
26750;SDS011;14345;48.272;25.926;2023-02-28T08:48:27;54.90;;;35.10;;
26750;SDS011;14345;48.272;25.926;2023-02-28T08:50:59;53.13;;;32.47;;
26750;SDS011;14345;48.272;25.926;2023-02-28T08:53:26;58.38;;;34.72;;
26750;SDS011;14345;48.272;25.926;2023-02-28T08:55:55;53.80;;;33.92;;
26750;SDS011;14345;48.272;25.926;2023-02-28T08:58:22;71.80;;;39.92;;
26750;SDS011;14345;48.272;25.926;2023-02-28T09:00:48;65.35;;;39.92;;
26750;SDS011;14345;48.272;25.926;2023-02-28T09:03:15;59.53;;;38.10;;
26750;SDS011;14345;48.272;25.926;2023-02-28T09:05:50;59.42;;;36.97;;
26750;SDS011;14345;48.272;25.926;2023-02-28T09:08:16;55.30;;;35.25;;
26750;SDS011;14345;48.272;25.926;2023-02-28T09:10:43;45.17;;;30.85;;
26750;SDS011;14345;48.272;25.926;2023-02-28T09:13:09;48.10;;;30.80;;
26750;SDS011;14345;48.272;25.926;2023-02-28T09:15:36;43.95;;;28.23;;
26750;SDS011;14345;48.272;25.926;2023-02-28T09:18:02;43.30;;;28.08;;
26750;SDS011;14345;48.272;25.926;2023-02-28T09:20:28;45.78;;;30.00;;
26750;SDS011;14345;48.272;25.926;2023-02-28T09:22:54;45.45;;;29.80;;
26750;SDS011;14345;48.272;25.926;2023-02-28T09:25:20;39.95;;;26.30;;
26750;SDS011;14345;48.272;25.926;2023-02-28T09:27:46;41.97;;;27.42;;
26750;SDS011;14345;48.272;25.926;2023-02-28T09:30:13;40.28;;;27.00;;
26750;SDS011;14345;48.272;25.926;2023-02-28T09:32:40;40.08;;;26.35;;
26750;SDS011;14345;48.272;25.926;2023-02-28T09:35:06;45.60;;;29.25;;
26750;SDS011;14345;48.272;25.926;2023-02-28T09:37:38;46.97;;;30.63;;
26750;SDS011;14345;48.272;25.926;2023-02-28T09:40:04;42.22;;;28.92;;
26750;SDS011;14345;48.272;25.926;2023-02-28T09:42:31;43.80;;;29.10;;
26750;SDS011;14345;48.272;25.926;2023-02-28T09:44:58;42.63;;;26.40;;
26750;SDS011;14345;48.272;25.926;2023-02-28T09:50:38;37.08;;;24.83;;
26750;SDS011;14345;48.272;25.926;2023-02-28T10:03:56;35.97;;;24.35;;
26750;SDS011;14345;48.272;25.926;2023-02-28T10:06:25;32.05;;;21.83;;
26750;SDS011;14345;48.272;25.926;2023-02-28T10:08:55;29.95;;;20.50;;
26750;SDS011;14345;48.272;25.926;2023-02-28T10:11:24;29.70;;;20.80;;
26750;SDS011;14345;48.272;25.926;2023-02-28T10:13:52;28.88;;;21.55;;
26750;SDS011;14345;48.272;25.926;2023-02-28T10:16:28;29.00;;;21.65;;
26750;SDS011;14345;48.272;25.926;2023-02-28T10:24:19;30.90;;;21.67;;
26750;SDS011;14345;48.272;25.926;2023-02-28T10:26:45;28.67;;;21.90;;
26750;SDS011;14345;48.272;25.926;2023-02-28T10:29:13;27.77;;;20.42;;
26750;SDS011;14345;48.272;25.926;2023-02-28T10:31:39;28.13;;;20.75;;
26750;SDS011;14345;48.272;25.926;2023-02-28T10:34:06;27.65;;;19.65;;
26750;SDS011;14345;48.272;25.926;2023-02-28T10:36:33;30.08;;;21.35;;
26750;SDS011;14345;48.272;25.926;2023-02-28T10:38:59;30.52;;;21.15;;
26750;SDS011;14345;48.272;25.926;2023-02-28T10:44:12;29.42;;;19.98;;
26750;SDS011;14345;48.272;25.926;2023-02-28T10:46:39;25.95;;;18.77;;
26750;SDS011;14345;48.272;25.926;2023-02-28T10:49:06;25.40;;;18.73;;
26750;SDS011;14345;48.272;25.926;2023-02-28T10:51:38;26.17;;;18.45;;
26750;SDS011;14345;48.272;25.926;2023-02-28T10:54:05;26.63;;;20.02;;
26750;SDS011;14345;48.272;25.926;2023-02-28T10:56:39;25.70;;;18.90;;
26750;SDS011;14345;48.272;25.926;2023-02-28T11:01:35;22.88;;;17.15;;
26750;SDS011;14345;48.272;25.926;2023-02-28T11:04:03;22.67;;;16.38;;
26750;SDS011;14345;48.272;25.926;2023-02-28T11:06:30;26.15;;;17.98;;
26750;SDS011;14345;48.272;25.926;2023-02-28T11:09:03;22.80;;;17.30;;
26750;SDS011;14345;48.272;25.926;2023-02-28T11:11:30;23.15;;;16.38;;
26750;SDS011;14345;48.272;25.926;2023-02-28T11:14:14;21.88;;;16.70;;
26750;SDS011;14345;48.272;25.926;2023-02-28T11:16:41;20.50;;;15.85;;
26750;SDS011;14345;48.272;25.926;2023-02-28T11:19:15;21.67;;;16.17;;
26750;SDS011;14345;48.272;25.926;2023-02-28T11:21:45;21.20;;;15.43;;
26750;SDS011;14345;48.272;25.926;2023-02-28T11:24:24;20.33;;;15.80;;
26750;SDS011;14345;48.272;25.926;2023-02-28T11:26:51;22.50;;;15.82;;
26750;SDS011;14345;48.272;25.926;2023-02-28T11:32:00;24.30;;;17.45;;
26750;SDS011;14345;48.272;25.926;2023-02-28T11:34:27;20.38;;;15.35;;
26750;SDS011;14345;48.272;25.926;2023-02-28T11:36:54;21.23;;;14.95;;
26750;SDS011;14345;48.272;25.926;2023-02-28T11:39:22;23.08;;;15.60;;
26750;SDS011;14345;48.272;25.926;2023-02-28T11:49:45;22.42;;;15.50;;
26750;SDS011;14345;48.272;25.926;2023-02-28T11:59:52;22.77;;;15.40;;
26750;SDS011;14345;48.272;25.926;2023-02-28T12:05:12;22.20;;;16.00;;
26750;SDS011;14345;48.272;25.926;2023-02-28T12:10:23;22.70;;;16.00;;
26750;SDS011;14345;48.272;25.926;2023-02-28T12:28:16;27.13;;;17.88;;
26750;SDS011;14345;48.272;25.926;2023-02-28T12:30:49;28.40;;;19.50;;
26750;SDS011;14345;48.272;25.926;2023-02-28T12:33:17;30.05;;;19.75;;
26750;SDS011;14345;48.272;25.926;2023-02-28T12:38:26;25.48;;;17.45;;
26750;SDS011;14345;48.272;25.926;2023-02-28T12:43:26;24.20;;;16.73;;
26750;SDS011;14345;48.272;25.926;2023-02-28T12:45:54;22.20;;;16.35;;
26750;SDS011;14345;48.272;25.926;2023-02-28T12:48:24;22.98;;;16.50;;
26750;SDS011;14345;48.272;25.926;2023-02-28T12:50:51;22.65;;;15.82;;
26750;SDS011;14345;48.272;25.926;2023-02-28T12:53:23;25.48;;;17.75;;
26750;SDS011;14345;48.272;25.926;2023-02-28T12:55:59;30.65;;;18.95;;
26750;SDS011;14345;48.272;25.926;2023-02-28T12:58:36;23.25;;;16.02;;
26750;SDS011;14345;48.272;25.926;2023-02-28T13:06:10;23.35;;;17.50;;
26750;SDS011;14345;48.272;25.926;2023-02-28T13:11:06;23.70;;;17.08;;
26750;SDS011;14345;48.272;25.926;2023-02-28T13:13:32;22.90;;;15.95;;
26750;SDS011;14345;48.272;25.926;2023-02-28T13:18:29;24.60;;;17.40;;
26750;SDS011;14345;48.272;25.926;2023-02-28T13:20:55;26.08;;;17.48;;
26750;SDS011;14345;48.272;25.926;2023-02-28T13:31:16;27.38;;;18.58;;
26750;SDS011;14345;48.272;25.926;2023-02-28T13:46:34;27.05;;;17.67;;
26750;SDS011;14345;48.272;25.926;2023-02-28T13:51:46;24.92;;;16.92;;
26750;SDS011;14345;48.272;25.926;2023-02-28T13:54:31;25.83;;;18.60;;
26750;SDS011;14345;48.272;25.926;2023-02-28T14:02:57;30.15;;;20.75;;
26750;SDS011;14345;48.272;25.926;2023-02-28T14:05:26;29.60;;;19.50;;
26750;SDS011;14345;48.272;25.926;2023-02-28T14:07:56;27.10;;;18.10;;
26750;SDS011;14345;48.272;25.926;2023-02-28T14:10:29;29.23;;;20.58;;
26750;SDS011;14345;48.272;25.926;2023-02-28T14:18:03;31.50;;;21.23;;
26750;SDS011;14345;48.272;25.926;2023-02-28T14:20:31;31.23;;;21.13;;
26750;SDS011;14345;48.272;25.926;2023-02-28T14:23:19;52.92;;;33.63;;
26750;SDS011;14345;48.272;25.926;2023-02-28T14:26:06;44.03;;;27.35;;
26750;SDS011;14345;48.272;25.926;2023-02-28T14:36:33;36.22;;;22.02;;
26750;SDS011;14345;48.272;25.926;2023-02-28T14:39:03;32.20;;;21.50;;
26750;SDS011;14345;48.272;25.926;2023-02-28T14:41:34;36.78;;;22.92;;
26750;SDS011;14345;48.272;25.926;2023-02-28T14:44:03;34.45;;;22.98;;
26750;SDS011;14345;48.272;25.926;2023-02-28T14:46:36;34.85;;;23.60;;
26750;SDS011;14345;48.272;25.926;2023-02-28T14:49:04;38.47;;;25.02;;
26750;SDS011;14345;48.272;25.926;2023-02-28T14:51:32;39.20;;;24.15;;
26750;SDS011;14345;48.272;25.926;2023-02-28T14:53:59;34.97;;;23.65;;
26750;SDS011;14345;48.272;25.926;2023-02-28T14:56:36;33.92;;;21.23;;
26750;SDS011;14345;48.272;25.926;2023-02-28T14:59:03;32.15;;;21.52;;
26750;SDS011;14345;48.272;25.926;2023-02-28T15:01:29;32.97;;;21.58;;
26750;SDS011;14345;48.272;25.926;2023-02-28T15:04:02;31.65;;;21.25;;
26750;SDS011;14345;48.272;25.926;2023-02-28T15:06:28;30.27;;;20.70;;
26750;SDS011;14345;48.272;25.926;2023-02-28T15:09:15;31.10;;;20.50;;
26750;SDS011;14345;48.272;25.926;2023-02-28T15:11:41;31.75;;;20.73;;
26750;SDS011;14345;48.272;25.926;2023-02-28T15:14:15;28.85;;;19.95;;
26750;SDS011;14345;48.272;25.926;2023-02-28T15:16:43;31.08;;;20.63;;
26750;SDS011;14345;48.272;25.926;2023-02-28T15:21:39;32.55;;;21.30;;
26750;SDS011;14345;48.272;25.926;2023-02-28T15:24:07;28.45;;;19.42;;
26750;SDS011;14345;48.272;25.926;2023-02-28T15:26:41;33.65;;;21.88;;
26750;SDS011;14345;48.272;25.926;2023-02-28T15:29:12;50.35;;;32.05;;
26750;SDS011;14345;48.272;25.926;2023-02-28T15:31:41;60.05;;;36.70;;
26750;SDS011;14345;48.272;25.926;2023-02-28T15:34:19;40.03;;;27.23;;
26750;SDS011;14345;48.272;25.926;2023-02-28T15:36:45;36.63;;;24.23;;
26750;SDS011;14345;48.272;25.926;2023-02-28T15:39:20;36.20;;;23.40;;
26750;SDS011;14345;48.272;25.926;2023-02-28T15:41:46;32.65;;;21.70;;
26750;SDS011;14345;48.272;25.926;2023-02-28T15:44:29;30.70;;;20.13;;
26750;SDS011;14345;48.272;25.926;2023-02-28T15:47:00;31.08;;;20.67;;
26750;SDS011;14345;48.272;25.926;2023-02-28T15:49:27;32.00;;;21.30;;
26750;SDS011;14345;48.272;25.926;2023-02-28T15:51:54;31.23;;;21.13;;
26750;SDS011;14345;48.272;25.926;2023-02-28T15:54:27;31.45;;;20.70;;
26750;SDS011;14345;48.272;25.926;2023-02-28T15:56:57;35.50;;;21.85;;
26750;SDS011;14345;48.272;25.926;2023-02-28T15:59:25;31.10;;;21.13;;
26750;SDS011;14345;48.272;25.926;2023-02-28T16:02:03;39.95;;;25.23;;
26750;SDS011;14345;48.272;25.926;2023-02-28T16:04:29;42.60;;;26.42;;
26750;SDS011;14345;48.272;25.926;2023-02-28T16:09:25;43.88;;;27.13;;
26750;SDS011;14345;48.272;25.926;2023-02-28T16:11:53;46.17;;;29.55;;
26750;SDS011;14345;48.272;25.926;2023-02-28T16:14:21;48.28;;;29.80;;
26750;SDS011;14345;48.272;25.926;2023-02-28T16:16:51;45.30;;;29.48;;
26750;SDS011;14345;48.272;25.926;2023-02-28T16:19:18;47.50;;;30.38;;
26750;SDS011;14345;48.272;25.926;2023-02-28T16:21:44;60.88;;;36.88;;
26750;SDS011;14345;48.272;25.926;2023-02-28T16:24:11;56.90;;;36.30;;
26750;SDS011;14345;48.272;25.926;2023-02-28T16:26:37;53.83;;;33.70;;
26750;SDS011;14345;48.272;25.926;2023-02-28T16:29:05;49.35;;;31.17;;
26750;SDS011;14345;48.272;25.926;2023-02-28T16:31:35;45.53;;;27.88;;
26750;SDS011;14345;48.272;25.926;2023-02-28T16:34:02;42.17;;;26.58;;
26750;SDS011;14345;48.272;25.926;2023-02-28T16:36:28;36.40;;;24.23;;
26750;SDS011;14345;48.272;25.926;2023-02-28T16:38:55;41.28;;;25.25;;
26750;SDS011;14345;48.272;25.926;2023-02-28T16:41:22;33.55;;;22.58;;
26750;SDS011;14345;48.272;25.926;2023-02-28T16:43:51;32.63;;;21.88;;
26750;SDS011;14345;48.272;25.926;2023-02-28T16:46:18;36.60;;;24.00;;
26750;SDS011;14345;48.272;25.926;2023-02-28T16:48:44;31.75;;;22.40;;
26750;SDS011;14345;48.272;25.926;2023-02-28T16:51:14;31.27;;;20.88;;
26750;SDS011;14345;48.272;25.926;2023-02-28T16:53:40;31.42;;;20.92;;